Portada
METAR-TAF:

METAR-TAF

Aeroports :

Villacoublay, França

latitud: 48-46N, longitud: 002-12E, altitud: 177 m

Observació

L'informe es va fer fa 32 minuts, a les 21:00 UTC
Vent calma
Temperatura 22°C
Humitat 60%
Pressió 1013 hPa
Visibilitat 10 km o més
sense núvols per sota de 1500 mi sense presència de cumulonimbus.

METAR: LFPV 192100Z AUTO 00000KT CAVOK 22/14 Q1013 NOSIG

Hora: 23:32 (21:32 UTC)

Pronòstic

L'informe es va fer fa 1 hora i 32 minuts, a les 20:00 UTC
Pronòstic vàlid del 19 a les 21 UTC al 20 a les 21 UTC
Vent 4 kt del Nord/Nord-Oest
Visibilitat 10 km o més
sense núvols per sota de 1500 mi sense presència de cumulonimbus.
Probabilitat 40% :
Temporalment
l' 20 a les 09 UTC al 20 a les 12 UTC
Núvols disperses a una alçada de 2500 ft, Cumulus congestus.
xàfecs de pluja
Temporalment
l' 20 a les 14 UTC al 20 a les 17 UTC
Vent 15 kt del Sud-Oest amb ràfegues de 25 kt

TAF: LFPV 192000Z 1921/2021 34004KT CAVOK PROB40 TEMPO 2009/2012 -SHRA SCT025TCU TEMPO 2014/2017 22015G25KT

Observacions i pronòstics meteorològics de més de 4000 aeroports (METAR i TAF).

Les estacions disponibles són els punts grocs i vermells al mapa.

Posi el ratolí al punt desitjat per veure el nom de l'estació.

Feu clic per veure les observacions i els pronòstics meteorològics.

Per canviar el mapa: feu clic els botons verds amb una creu de color negre per apropar; al botó verd amb un guió per allunyar la imatge; o en les fletxes verdes per a mapes adjacents.


METAR-TAF: